sensor_id;sensor_type;location;lat;lon;timestamp;temperature;humidity
25410;DHT22;13339;50.840;4.346;2023-04-23T00:00:08;13.30;99.90
25410;DHT22;13339;50.840;4.346;2023-04-23T00:02:38;13.20;99.90
25410;DHT22;13339;50.840;4.346;2023-04-23T00:05:05;13.20;99.90
25410;DHT22;13339;50.840;4.346;2023-04-23T00:07:34;13.10;99.90
25410;DHT22;13339;50.840;4.346;2023-04-23T00:10:00;13.10;99.90
25410;DHT22;13339;50.840;4.346;2023-04-23T00:12:29;13.10;99.90
25410;DHT22;13339;50.840;4.346;2023-04-23T00:14:55;13.20;99.90
25410;DHT22;13339;50.840;4.346;2023-04-23T00:17:20;13.20;99.90
25410;DHT22;13339;50.840;4.346;2023-04-23T00:19:47;13.20;99.90
25410;DHT22;13339;50.840;4.346;2023-04-23T00:22:13;13.30;99.90
25410;DHT22;13339;50.840;4.346;2023-04-23T00:24:41;13.40;99.90
25410;DHT22;13339;50.840;4.346;2023-04-23T00:27:07;13.40;99.90
25410;DHT22;13339;50.840;4.346;2023-04-23T00:29:32;13.60;99.90
25410;DHT22;13339;50.840;4.346;2023-04-23T00:31:58;13.60;99.90
25410;DHT22;13339;50.840;4.346;2023-04-23T00:34:25;13.70;99.90
25410;DHT22;13339;50.840;4.346;2023-04-23T00:36:50;13.70;99.90
25410;DHT22;13339;50.840;4.346;2023-04-23T00:39:16;13.80;99.90
25410;DHT22;13339;50.840;4.346;2023-04-23T00:41:42;13.80;99.90
25410;DHT22;13339;50.840;4.346;2023-04-23T00:44:09;13.90;99.90
25410;DHT22;13339;50.840;4.346;2023-04-23T00:46:35;13.90;99.90
25410;DHT22;13339;50.840;4.346;2023-04-23T00:49:01;13.80;99.90
25410;DHT22;13339;50.840;4.346;2023-04-23T00:51:28;13.90;99.90
25410;DHT22;13339;50.840;4.346;2023-04-23T00:53:54;13.90;99.90
25410;DHT22;13339;50.840;4.346;2023-04-23T00:56:21;13.90;99.90
25410;DHT22;13339;50.840;4.346;2023-04-23T00:58:48;13.90;99.90
25410;DHT22;13339;50.840;4.346;2023-04-23T01:01:14;13.80;99.90
25410;DHT22;13339;50.840;4.346;2023-04-23T01:03:42;13.70;99.90
25410;DHT22;13339;50.840;4.346;2023-04-23T01:06:08;13.80;99.90
25410;DHT22;13339;50.840;4.346;2023-04-23T01:08:34;13.90;99.90
25410;DHT22;13339;50.840;4.346;2023-04-23T01:11:01;14.10;99.90
25410;DHT22;13339;50.840;4.346;2023-04-23T01:13:27;14.10;99.90
25410;DHT22;13339;50.840;4.346;2023-04-23T01:15:55;14.10;99.90
25410;DHT22;13339;50.840;4.346;2023-04-23T01:18:21;14.20;99.90
25410;DHT22;13339;50.840;4.346;2023-04-23T01:20:47;14.20;99.90
25410;DHT22;13339;50.840;4.346;2023-04-23T01:23:14;14.20;99.90
25410;DHT22;13339;50.840;4.346;2023-04-23T01:25:41;14.20;99.90
25410;DHT22;13339;50.840;4.346;2023-04-23T01:28:07;14.10;99.90
25410;DHT22;13339;50.840;4.346;2023-04-23T01:30:33;14.20;99.90
25410;DHT22;13339;50.840;4.346;2023-04-23T01:32:59;14.20;99.90
25410;DHT22;13339;50.840;4.346;2023-04-23T01:35:25;14.20;99.90
25410;DHT22;13339;50.840;4.346;2023-04-23T01:37:53;14.20;99.90
25410;DHT22;13339;50.840;4.346;2023-04-23T01:40:20;14.30;99.90
25410;DHT22;13339;50.840;4.346;2023-04-23T01:42:47;14.30;99.90
25410;DHT22;13339;50.840;4.346;2023-04-23T01:45:12;14.10;99.90
25410;DHT22;13339;50.840;4.346;2023-04-23T01:47:40;14.10;99.90
25410;DHT22;13339;50.840;4.346;2023-04-23T01:50:07;14.10;99.90
25410;DHT22;13339;50.840;4.346;2023-04-23T01:52:32;14.20;99.90
25410;DHT22;13339;50.840;4.346;2023-04-23T01:54:58;14.20;99.90
25410;DHT22;13339;50.840;4.346;2023-04-23T01:57:24;14.20;99.90
25410;DHT22;13339;50.840;4.346;2023-04-23T02:00:02;14.20;99.90
25410;DHT22;13339;50.840;4.346;2023-04-23T02:02:29;14.20;99.90
25410;DHT22;13339;50.840;4.346;2023-04-23T02:04:55;14.20;99.90
25410;DHT22;13339;50.840;4.346;2023-04-23T02:07:21;14.20;99.90
25410;DHT22;13339;50.840;4.346;2023-04-23T02:09:47;14.20;99.90
25410;DHT22;13339;50.840;4.346;2023-04-23T02:12:13;14.20;99.90
25410;DHT22;13339;50.840;4.346;2023-04-23T02:14:38;14.20;99.90
25410;DHT22;13339;50.840;4.346;2023-04-23T02:17:04;14.20;99.90
25410;DHT22;13339;50.840;4.346;2023-04-23T02:19:30;14.10;99.90
25410;DHT22;13339;50.840;4.346;2023-04-23T02:21:58;14.20;99.90
25410;DHT22;13339;50.840;4.346;2023-04-23T02:24:24;14.30;99.90
25410;DHT22;13339;50.840;4.346;2023-04-23T02:26:50;14.30;99.90
25410;DHT22;13339;50.840;4.346;2023-04-23T02:29:15;14.40;99.90
25410;DHT22;13339;50.840;4.346;2023-04-23T02:31:41;14.30;99.90
25410;DHT22;13339;50.840;4.346;2023-04-23T02:34:07;14.40;99.90
25410;DHT22;13339;50.840;4.346;2023-04-23T02:36:32;14.30;99.90
25410;DHT22;13339;50.840;4.346;2023-04-23T02:38:58;14.40;99.90
25410;DHT22;13339;50.840;4.346;2023-04-23T02:41:23;14.30;99.90
25410;DHT22;13339;50.840;4.346;2023-04-23T02:43:49;14.30;99.90
25410;DHT22;13339;50.840;4.346;2023-04-23T02:46:14;14.30;99.90
25410;DHT22;13339;50.840;4.346;2023-04-23T02:48:40;14.40;99.90
25410;DHT22;13339;50.840;4.346;2023-04-23T02:51:09;14.40;99.90
25410;DHT22;13339;50.840;4.346;2023-04-23T02:53:35;14.40;99.90
25410;DHT22;13339;50.840;4.346;2023-04-23T02:56:01;14.20;99.90
25410;DHT22;13339;50.840;4.346;2023-04-23T02:58:27;14.10;99.90
25410;DHT22;13339;50.840;4.346;2023-04-23T03:00:53;14.00;99.90
25410;DHT22;13339;50.840;4.346;2023-04-23T03:03:19;13.90;99.90
25410;DHT22;13339;50.840;4.346;2023-04-23T03:05:44;13.90;99.90
25410;DHT22;13339;50.840;4.346;2023-04-23T03:08:10;14.00;99.90
25410;DHT22;13339;50.840;4.346;2023-04-23T03:10:36;14.00;99.90
25410;DHT22;13339;50.840;4.346;2023-04-23T03:13:01;13.90;99.90
25410;DHT22;13339;50.840;4.346;2023-04-23T03:15:27;13.80;99.90
25410;DHT22;13339;50.840;4.346;2023-04-23T03:17:53;13.70;99.90
25410;DHT22;13339;50.840;4.346;2023-04-23T03:20:19;13.60;99.90
25410;DHT22;13339;50.840;4.346;2023-04-23T03:22:44;13.70;99.90
25410;DHT22;13339;50.840;4.346;2023-04-23T03:25:10;13.60;99.90
25410;DHT22;13339;50.840;4.346;2023-04-23T03:27:38;13.60;99.90
25410;DHT22;13339;50.840;4.346;2023-04-23T03:30:06;13.70;99.90
25410;DHT22;13339;50.840;4.346;2023-04-23T03:32:33;13.70;99.90
25410;DHT22;13339;50.840;4.346;2023-04-23T03:34:59;13.80;99.90
25410;DHT22;13339;50.840;4.346;2023-04-23T03:37:26;13.80;99.90
25410;DHT22;13339;50.840;4.346;2023-04-23T03:39:52;13.60;99.90
25410;DHT22;13339;50.840;4.346;2023-04-23T03:42:17;13.70;99.90
25410;DHT22;13339;50.840;4.346;2023-04-23T03:44:43;13.60;99.90
25410;DHT22;13339;50.840;4.346;2023-04-23T03:47:09;13.50;99.90
25410;DHT22;13339;50.840;4.346;2023-04-23T03:49:35;13.40;99.90
25410;DHT22;13339;50.840;4.346;2023-04-23T03:52:01;13.40;99.90
25410;DHT22;13339;50.840;4.346;2023-04-23T03:54:26;13.40;99.90
25410;DHT22;13339;50.840;4.346;2023-04-23T03:56:52;13.40;99.90
25410;DHT22;13339;50.840;4.346;2023-04-23T03:59:18;13.50;99.90
25410;DHT22;13339;50.840;4.346;2023-04-23T04:01:45;13.50;99.90
25410;DHT22;13339;50.840;4.346;2023-04-23T04:04:13;13.50;99.90
25410;DHT22;13339;50.840;4.346;2023-04-23T04:06:39;13.50;99.90
25410;DHT22;13339;50.840;4.346;2023-04-23T04:09:05;13.50;99.90
25410;DHT22;13339;50.840;4.346;2023-04-23T04:11:32;13.50;99.90
25410;DHT22;13339;50.840;4.346;2023-04-23T04:13:58;13.50;99.90
25410;DHT22;13339;50.840;4.346;2023-04-23T04:16:24;13.40;99.90
25410;DHT22;13339;50.840;4.346;2023-04-23T04:18:49;13.40;99.90
25410;DHT22;13339;50.840;4.346;2023-04-23T04:21:15;13.40;99.90
25410;DHT22;13339;50.840;4.346;2023-04-23T04:23:43;13.40;99.90
25410;DHT22;13339;50.840;4.346;2023-04-23T04:26:08;13.30;99.90
25410;DHT22;13339;50.840;4.346;2023-04-23T04:28:35;13.20;99.90
25410;DHT22;13339;50.840;4.346;2023-04-23T04:31:02;13.20;99.90
25410;DHT22;13339;50.840;4.346;2023-04-23T04:33:27;13.20;99.90
25410;DHT22;13339;50.840;4.346;2023-04-23T04:35:54;13.20;99.90
25410;DHT22;13339;50.840;4.346;2023-04-23T04:38:20;13.20;99.90
25410;DHT22;13339;50.840;4.346;2023-04-23T04:40:46;13.30;99.90
25410;DHT22;13339;50.840;4.346;2023-04-23T04:43:13;13.10;99.90
25410;DHT22;13339;50.840;4.346;2023-04-23T04:45:39;13.10;99.90
25410;DHT22;13339;50.840;4.346;2023-04-23T04:48:05;13.10;99.90
25410;DHT22;13339;50.840;4.346;2023-04-23T04:50:30;13.20;99.90
25410;DHT22;13339;50.840;4.346;2023-04-23T04:52:56;13.10;99.90
25410;DHT22;13339;50.840;4.346;2023-04-23T04:55:21;13.10;99.90
25410;DHT22;13339;50.840;4.346;2023-04-23T04:57:47;13.20;99.90
25410;DHT22;13339;50.840;4.346;2023-04-23T05:02:50;13.10;99.90
25410;DHT22;13339;50.840;4.346;2023-04-23T05:05:17;13.10;99.90
25410;DHT22;13339;50.840;4.346;2023-04-23T05:07:43;13.10;99.90
25410;DHT22;13339;50.840;4.346;2023-04-23T05:10:09;13.10;99.90
25410;DHT22;13339;50.840;4.346;2023-04-23T05:12:34;13.20;99.90
25410;DHT22;13339;50.840;4.346;2023-04-23T05:15:01;13.20;99.90
25410;DHT22;13339;50.840;4.346;2023-04-23T05:17:28;13.20;99.90
25410;DHT22;13339;50.840;4.346;2023-04-23T05:19:54;13.20;99.90
25410;DHT22;13339;50.840;4.346;2023-04-23T05:22:20;13.20;99.90
25410;DHT22;13339;50.840;4.346;2023-04-23T05:24:46;13.20;99.90
25410;DHT22;13339;50.840;4.346;2023-04-23T05:27:11;13.20;99.90
25410;DHT22;13339;50.840;4.346;2023-04-23T05:29:37;13.30;99.90
25410;DHT22;13339;50.840;4.346;2023-04-23T05:32:02;13.30;99.90
25410;DHT22;13339;50.840;4.346;2023-04-23T05:34:28;13.30;99.90
25410;DHT22;13339;50.840;4.346;2023-04-23T05:36:54;13.30;99.90
25410;DHT22;13339;50.840;4.346;2023-04-23T05:39:19;13.40;99.90
25410;DHT22;13339;50.840;4.346;2023-04-23T05:41:45;13.30;99.90
25410;DHT22;13339;50.840;4.346;2023-04-23T05:44:10;13.30;99.90
25410;DHT22;13339;50.840;4.346;2023-04-23T05:46:36;13.30;99.90
25410;DHT22;13339;50.840;4.346;2023-04-23T05:49:03;13.30;99.90
25410;DHT22;13339;50.840;4.346;2023-04-23T05:51:28;13.40;99.90
25410;DHT22;13339;50.840;4.346;2023-04-23T05:53:54;13.50;99.90
25410;DHT22;13339;50.840;4.346;2023-04-23T05:56:19;13.60;99.90
25410;DHT22;13339;50.840;4.346;2023-04-23T05:58:45;13.60;99.90
25410;DHT22;13339;50.840;4.346;2023-04-23T06:01:11;13.60;99.90
25410;DHT22;13339;50.840;4.346;2023-04-23T06:03:36;13.70;99.90
25410;DHT22;13339;50.840;4.346;2023-04-23T06:06:02;13.70;99.90
25410;DHT22;13339;50.840;4.346;2023-04-23T06:08:28;13.70;99.90
25410;DHT22;13339;50.840;4.346;2023-04-23T06:10:53;13.60;99.90
25410;DHT22;13339;50.840;4.346;2023-04-23T06:13:20;13.70;99.90
25410;DHT22;13339;50.840;4.346;2023-04-23T06:15:46;13.60;99.90
25410;DHT22;13339;50.840;4.346;2023-04-23T06:18:11;13.50;99.90
25410;DHT22;13339;50.840;4.346;2023-04-23T06:20:37;13.70;99.90
25410;DHT22;13339;50.840;4.346;2023-04-23T06:23:03;13.80;99.90
25410;DHT22;13339;50.840;4.346;2023-04-23T06:25:28;13.90;99.90
25410;DHT22;13339;50.840;4.346;2023-04-23T06:27:54;13.90;99.90
25410;DHT22;13339;50.840;4.346;2023-04-23T06:30:22;14.00;99.90
25410;DHT22;13339;50.840;4.346;2023-04-23T06:32:49;14.00;99.90
25410;DHT22;13339;50.840;4.346;2023-04-23T06:35:14;14.10;99.90
25410;DHT22;13339;50.840;4.346;2023-04-23T06:37:40;14.10;99.90
25410;DHT22;13339;50.840;4.346;2023-04-23T06:40:06;14.10;99.90
25410;DHT22;13339;50.840;4.346;2023-04-23T06:42:32;14.10;99.90
25410;DHT22;13339;50.840;4.346;2023-04-23T06:44:57;13.90;99.90
25410;DHT22;13339;50.840;4.346;2023-04-23T06:47:24;13.90;99.90
25410;DHT22;13339;50.840;4.346;2023-04-23T06:49:49;14.00;99.90
25410;DHT22;13339;50.840;4.346;2023-04-23T06:52:15;14.10;99.90
25410;DHT22;13339;50.840;4.346;2023-04-23T06:54:40;14.20;99.90
25410;DHT22;13339;50.840;4.346;2023-04-23T06:57:06;14.20;99.90
25410;DHT22;13339;50.840;4.346;2023-04-23T06:59:32;14.30;99.90
25410;DHT22;13339;50.840;4.346;2023-04-23T07:01:57;14.30;99.90
25410;DHT22;13339;50.840;4.346;2023-04-23T07:04:23;14.40;99.90
25410;DHT22;13339;50.840;4.346;2023-04-23T07:06:49;14.30;99.90
25410;DHT22;13339;50.840;4.346;2023-04-23T07:09:14;14.40;99.90
25410;DHT22;13339;50.840;4.346;2023-04-23T07:11:40;14.40;99.90
25410;DHT22;13339;50.840;4.346;2023-04-23T07:14:06;14.40;99.90
25410;DHT22;13339;50.840;4.346;2023-04-23T07:16:31;14.50;99.90
25410;DHT22;13339;50.840;4.346;2023-04-23T07:18:59;14.50;99.90
25410;DHT22;13339;50.840;4.346;2023-04-23T07:21:26;14.60;99.90
25410;DHT22;13339;50.840;4.346;2023-04-23T07:23:53;14.70;99.90
25410;DHT22;13339;50.840;4.346;2023-04-23T07:26:20;14.70;99.90
25410;DHT22;13339;50.840;4.346;2023-04-23T07:28:45;14.80;99.90
25410;DHT22;13339;50.840;4.346;2023-04-23T07:31:12;15.00;99.90
25410;DHT22;13339;50.840;4.346;2023-04-23T07:33:38;15.00;99.90
25410;DHT22;13339;50.840;4.346;2023-04-23T07:36:04;15.00;99.90
25410;DHT22;13339;50.840;4.346;2023-04-23T07:38:30;15.00;99.90
25410;DHT22;13339;50.840;4.346;2023-04-23T07:40:55;15.10;99.90
25410;DHT22;13339;50.840;4.346;2023-04-23T07:43:21;15.00;99.90
25410;DHT22;13339;50.840;4.346;2023-04-23T07:45:47;15.00;99.90
25410;DHT22;13339;50.840;4.346;2023-04-23T07:48:12;15.10;99.90
25410;DHT22;13339;50.840;4.346;2023-04-23T07:50:38;15.20;99.90
25410;DHT22;13339;50.840;4.346;2023-04-23T07:53:04;15.30;99.90
25410;DHT22;13339;50.840;4.346;2023-04-23T07:55:29;15.40;99.90
25410;DHT22;13339;50.840;4.346;2023-04-23T07:57:55;15.40;99.90
25410;DHT22;13339;50.840;4.346;2023-04-23T08:00:21;15.60;99.90
25410;DHT22;13339;50.840;4.346;2023-04-23T08:02:46;15.70;99.90
25410;DHT22;13339;50.840;4.346;2023-04-23T08:05:12;15.60;99.90
25410;DHT22;13339;50.840;4.346;2023-04-23T08:07:37;15.70;99.90
25410;DHT22;13339;50.840;4.346;2023-04-23T08:10:03;15.90;99.90
25410;DHT22;13339;50.840;4.346;2023-04-23T08:12:31;16.00;99.90
25410;DHT22;13339;50.840;4.346;2023-04-23T08:14:59;16.10;99.90
25410;DHT22;13339;50.840;4.346;2023-04-23T08:17:24;16.10;99.90
25410;DHT22;13339;50.840;4.346;2023-04-23T08:19:50;16.20;99.90
25410;DHT22;13339;50.840;4.346;2023-04-23T08:22:16;16.30;99.90
25410;DHT22;13339;50.840;4.346;2023-04-23T08:24:42;16.30;99.90
25410;DHT22;13339;50.840;4.346;2023-04-23T08:27:09;16.50;99.90
25410;DHT22;13339;50.840;4.346;2023-04-23T08:29:35;16.60;99.90
25410;DHT22;13339;50.840;4.346;2023-04-23T08:32:00;16.80;99.90
25410;DHT22;13339;50.840;4.346;2023-04-23T08:34:26;17.00;99.90
25410;DHT22;13339;50.840;4.346;2023-04-23T08:36:51;17.20;99.90
25410;DHT22;13339;50.840;4.346;2023-04-23T08:39:17;17.30;99.90
25410;DHT22;13339;50.840;4.346;2023-04-23T08:41:44;17.40;99.90
25410;DHT22;13339;50.840;4.346;2023-04-23T08:46:43;17.50;99.90
25410;DHT22;13339;50.840;4.346;2023-04-23T08:49:13;17.60;99.90
25410;DHT22;13339;50.840;4.346;2023-04-23T08:51:44;17.60;99.90
25410;DHT22;13339;50.840;4.346;2023-04-23T08:54:15;17.70;99.90
25410;DHT22;13339;50.840;4.346;2023-04-23T08:56:43;17.80;99.90
25410;DHT22;13339;50.840;4.346;2023-04-23T08:59:10;18.00;99.90
25410;DHT22;13339;50.840;4.346;2023-04-23T09:01:36;18.00;99.90
25410;DHT22;13339;50.840;4.346;2023-04-23T09:04:02;18.00;99.90
25410;DHT22;13339;50.840;4.346;2023-04-23T09:06:29;18.00;99.90
25410;DHT22;13339;50.840;4.346;2023-04-23T09:08:57;17.80;99.90
25410;DHT22;13339;50.840;4.346;2023-04-23T09:11:26;17.90;99.90
25410;DHT22;13339;50.840;4.346;2023-04-23T09:13:52;17.90;99.90
25410;DHT22;13339;50.840;4.346;2023-04-23T09:16:17;18.00;99.90
25410;DHT22;13339;50.840;4.346;2023-04-23T09:18:43;18.10;99.90
25410;DHT22;13339;50.840;4.346;2023-04-23T09:21:09;18.10;99.90
25410;DHT22;13339;50.840;4.346;2023-04-23T09:23:38;18.20;99.90
25410;DHT22;13339;50.840;4.346;2023-04-23T09:26:07;18.20;99.90
25410;DHT22;13339;50.840;4.346;2023-04-23T09:28:36;18.20;99.90
25410;DHT22;13339;50.840;4.346;2023-04-23T09:31:04;18.10;99.90
25410;DHT22;13339;50.840;4.346;2023-04-23T09:33:33;18.20;99.90
25410;DHT22;13339;50.840;4.346;2023-04-23T09:36:10;18.20;99.90
25410;DHT22;13339;50.840;4.346;2023-04-23T09:38:42;18.20;99.90
25410;DHT22;13339;50.840;4.346;2023-04-23T09:41:21;18.20;99.90
25410;DHT22;13339;50.840;4.346;2023-04-23T09:43:47;18.30;99.90
25410;DHT22;13339;50.840;4.346;2023-04-23T09:46:13;18.40;99.90
25410;DHT22;13339;50.840;4.346;2023-04-23T09:48:42;18.50;99.90
25410;DHT22;13339;50.840;4.346;2023-04-23T09:51:08;18.70;99.90
25410;DHT22;13339;50.840;4.346;2023-04-23T09:53:41;18.70;99.90
25410;DHT22;13339;50.840;4.346;2023-04-23T09:56:07;18.90;99.90
25410;DHT22;13339;50.840;4.346;2023-04-23T09:58:33;19.00;99.90
25410;DHT22;13339;50.840;4.346;2023-04-23T10:01:08;18.90;99.90
25410;DHT22;13339;50.840;4.346;2023-04-23T10:03:34;18.80;99.90
25410;DHT22;13339;50.840;4.346;2023-04-23T10:05:59;18.80;99.90
25410;DHT22;13339;50.840;4.346;2023-04-23T10:08:26;18.90;99.90
25410;DHT22;13339;50.840;4.346;2023-04-23T10:10:52;18.80;99.90
25410;DHT22;13339;50.840;4.346;2023-04-23T10:13:18;18.70;99.90
25410;DHT22;13339;50.840;4.346;2023-04-23T10:15:45;18.70;99.90
25410;DHT22;13339;50.840;4.346;2023-04-23T10:18:13;18.80;99.90
25410;DHT22;13339;50.840;4.346;2023-04-23T10:20:40;18.80;99.90
25410;DHT22;13339;50.840;4.346;2023-04-23T10:23:07;18.90;99.90
25410;DHT22;13339;50.840;4.346;2023-04-23T10:25:35;19.00;99.90
25410;DHT22;13339;50.840;4.346;2023-04-23T10:28:05;19.00;99.90
25410;DHT22;13339;50.840;4.346;2023-04-23T10:30:32;18.90;99.90
25410;DHT22;13339;50.840;4.346;2023-04-23T10:32:59;19.10;99.90
25410;DHT22;13339;50.840;4.346;2023-04-23T10:35:26;19.10;99.90
25410;DHT22;13339;50.840;4.346;2023-04-23T10:37:52;18.90;99.90
25410;DHT22;13339;50.840;4.346;2023-04-23T10:40:20;19.00;99.90
25410;DHT22;13339;50.840;4.346;2023-04-23T10:42:49;19.00;99.90
25410;DHT22;13339;50.840;4.346;2023-04-23T10:45:17;18.90;99.90
25410;DHT22;13339;50.840;4.346;2023-04-23T10:47:44;18.90;99.90
25410;DHT22;13339;50.840;4.346;2023-04-23T10:50:20;18.80;99.90
25410;DHT22;13339;50.840;4.346;2023-04-23T10:52:47;18.90;99.90
25410;DHT22;13339;50.840;4.346;2023-04-23T10:55:36;19.00;99.90
25410;DHT22;13339;50.840;4.346;2023-04-23T10:58:05;19.10;99.90
25410;DHT22;13339;50.840;4.346;2023-04-23T11:03:43;19.30;99.90
25410;DHT22;13339;50.840;4.346;2023-04-23T11:06:18;19.10;99.90
25410;DHT22;13339;50.840;4.346;2023-04-23T11:08:55;19.20;99.90
25410;DHT22;13339;50.840;4.346;2023-04-23T11:11:40;19.20;99.90
25410;DHT22;13339;50.840;4.346;2023-04-23T11:14:12;19.40;99.90
25410;DHT22;13339;50.840;4.346;2023-04-23T11:16:40;19.50;99.90
25410;DHT22;13339;50.840;4.346;2023-04-23T11:19:10;19.40;99.90
25410;DHT22;13339;50.840;4.346;2023-04-23T11:24:44;19.60;99.90
25410;DHT22;13339;50.840;4.346;2023-04-23T11:27:15;19.80;99.90
25410;DHT22;13339;50.840;4.346;2023-04-23T11:29:44;19.80;99.90
25410;DHT22;13339;50.840;4.346;2023-04-23T11:32:11;19.80;99.90
25410;DHT22;13339;50.840;4.346;2023-04-23T11:34:42;20.00;99.90
25410;DHT22;13339;50.840;4.346;2023-04-23T11:37:14;20.10;99.90
25410;DHT22;13339;50.840;4.346;2023-04-23T11:39:41;20.10;99.90
25410;DHT22;13339;50.840;4.346;2023-04-23T11:42:14;20.00;99.90
25410;DHT22;13339;50.840;4.346;2023-04-23T11:44:41;19.80;99.90
25410;DHT22;13339;50.840;4.346;2023-04-23T11:47:08;19.60;99.90
25410;DHT22;13339;50.840;4.346;2023-04-23T11:49:41;19.40;99.90
25410;DHT22;13339;50.840;4.346;2023-04-23T11:52:08;19.20;99.90
25410;DHT22;13339;50.840;4.346;2023-04-23T11:54:34;19.00;99.90
25410;DHT22;13339;50.840;4.346;2023-04-23T11:57:00;19.00;99.90
25410;DHT22;13339;50.840;4.346;2023-04-23T11:59:27;18.80;99.90
25410;DHT22;13339;50.840;4.346;2023-04-23T12:01:55;18.70;99.90
25410;DHT22;13339;50.840;4.346;2023-04-23T12:04:24;18.60;99.90
25410;DHT22;13339;50.840;4.346;2023-04-23T12:06:52;18.50;99.90
25410;DHT22;13339;50.840;4.346;2023-04-23T12:09:20;18.50;99.90
25410;DHT22;13339;50.840;4.346;2023-04-23T12:11:46;18.40;99.90
25410;DHT22;13339;50.840;4.346;2023-04-23T12:14:13;18.50;99.90
25410;DHT22;13339;50.840;4.346;2023-04-23T12:16:43;18.40;99.90
25410;DHT22;13339;50.840;4.346;2023-04-23T12:21:53;18.10;99.90
25410;DHT22;13339;50.840;4.346;2023-04-23T12:24:26;18.10;99.90
25410;DHT22;13339;50.840;4.346;2023-04-23T12:26:57;18.00;99.90
25410;DHT22;13339;50.840;4.346;2023-04-23T12:29:25;17.70;99.90
25410;DHT22;13339;50.840;4.346;2023-04-23T12:31:52;17.20;99.90
25410;DHT22;13339;50.840;4.346;2023-04-23T12:34:21;17.10;99.90
25410;DHT22;13339;50.840;4.346;2023-04-23T12:36:51;17.00;99.90
25410;DHT22;13339;50.840;4.346;2023-04-23T12:39:29;16.90;99.90
25410;DHT22;13339;50.840;4.346;2023-04-23T12:41:59;16.70;99.90
25410;DHT22;13339;50.840;4.346;2023-04-23T12:44:27;16.70;99.90
25410;DHT22;13339;50.840;4.346;2023-04-23T12:47:07;16.60;99.90
25410;DHT22;13339;50.840;4.346;2023-04-23T12:49:34;16.30;99.90
25410;DHT22;13339;50.840;4.346;2023-04-23T12:52:01;16.30;99.90
25410;DHT22;13339;50.840;4.346;2023-04-23T12:54:32;16.50;99.90
25410;DHT22;13339;50.840;4.346;2023-04-23T12:56:59;16.60;99.90
25410;DHT22;13339;50.840;4.346;2023-04-23T12:59:27;16.50;99.90
25410;DHT22;13339;50.840;4.346;2023-04-23T13:01:52;16.60;99.90
25410;DHT22;13339;50.840;4.346;2023-04-23T13:04:18;16.40;99.90
25410;DHT22;13339;50.840;4.346;2023-04-23T13:06:44;16.40;99.90
25410;DHT22;13339;50.840;4.346;2023-04-23T13:09:10;16.20;99.90
25410;DHT22;13339;50.840;4.346;2023-04-23T13:11:39;16.20;99.90
25410;DHT22;13339;50.840;4.346;2023-04-23T13:14:06;16.30;99.90
25410;DHT22;13339;50.840;4.346;2023-04-23T13:16:32;16.30;99.90
25410;DHT22;13339;50.840;4.346;2023-04-23T13:18:59;16.50;99.90
25410;DHT22;13339;50.840;4.346;2023-04-23T13:21:25;16.70;99.90
25410;DHT22;13339;50.840;4.346;2023-04-23T13:23:50;16.70;99.90
25410;DHT22;13339;50.840;4.346;2023-04-23T13:26:16;16.80;99.90
25410;DHT22;13339;50.840;4.346;2023-04-23T13:28:42;16.70;99.90
25410;DHT22;13339;50.840;4.346;2023-04-23T13:31:08;16.50;99.90
25410;DHT22;13339;50.840;4.346;2023-04-23T13:33:37;16.20;99.90
25410;DHT22;13339;50.840;4.346;2023-04-23T13:36:03;15.90;99.90
25410;DHT22;13339;50.840;4.346;2023-04-23T13:38:30;15.70;99.90
25410;DHT22;13339;50.840;4.346;2023-04-23T13:40:55;15.80;99.90
25410;DHT22;13339;50.840;4.346;2023-04-23T13:43:21;16.00;99.90
25410;DHT22;13339;50.840;4.346;2023-04-23T13:45:47;16.10;99.90
25410;DHT22;13339;50.840;4.346;2023-04-23T13:48:14;16.20;99.90
25410;DHT22;13339;50.840;4.346;2023-04-23T13:50:40;15.90;99.90
25410;DHT22;13339;50.840;4.346;2023-04-23T13:53:07;15.80;99.90
25410;DHT22;13339;50.840;4.346;2023-04-23T13:55:32;15.60;99.90
25410;DHT22;13339;50.840;4.346;2023-04-23T13:57:58;15.60;99.90
25410;DHT22;13339;50.840;4.346;2023-04-23T14:00:27;15.50;99.90
25410;DHT22;13339;50.840;4.346;2023-04-23T14:02:52;15.60;99.90
25410;DHT22;13339;50.840;4.346;2023-04-23T14:05:18;15.60;99.90
25410;DHT22;13339;50.840;4.346;2023-04-23T14:07:43;15.60;99.90
25410;DHT22;13339;50.840;4.346;2023-04-23T14:10:10;15.50;99.90
25410;DHT22;13339;50.840;4.346;2023-04-23T14:12:36;15.50;99.90
25410;DHT22;13339;50.840;4.346;2023-04-23T14:15:04;15.60;99.90
25410;DHT22;13339;50.840;4.346;2023-04-23T14:17:30;15.60;99.90
25410;DHT22;13339;50.840;4.346;2023-04-23T14:19:56;15.60;99.90
25410;DHT22;13339;50.840;4.346;2023-04-23T14:22:22;15.80;99.90
25410;DHT22;13339;50.840;4.346;2023-04-23T14:24:55;15.90;99.90
25410;DHT22;13339;50.840;4.346;2023-04-23T14:27:22;16.00;99.90
25410;DHT22;13339;50.840;4.346;2023-04-23T14:30:19;16.00;99.90
25410;DHT22;13339;50.840;4.346;2023-04-23T14:32:45;16.20;99.90
25410;DHT22;13339;50.840;4.346;2023-04-23T14:35:15;16.40;99.90
25410;DHT22;13339;50.840;4.346;2023-04-23T14:37:41;16.60;99.90
25410;DHT22;13339;50.840;4.346;2023-04-23T14:40:10;16.80;99.90
25410;DHT22;13339;50.840;4.346;2023-04-23T14:42:38;16.80;99.90
25410;DHT22;13339;50.840;4.346;2023-04-23T14:45:04;16.90;99.90
25410;DHT22;13339;50.840;4.346;2023-04-23T14:47:29;17.00;99.90
25410;DHT22;13339;50.840;4.346;2023-04-23T14:49:55;17.00;99.90
25410;DHT22;13339;50.840;4.346;2023-04-23T14:52:22;16.90;99.90
25410;DHT22;13339;50.840;4.346;2023-04-23T14:54:48;16.90;99.90
25410;DHT22;13339;50.840;4.346;2023-04-23T14:57:14;16.70;99.90
25410;DHT22;13339;50.840;4.346;2023-04-23T14:59:40;16.70;99.90
25410;DHT22;13339;50.840;4.346;2023-04-23T15:02:05;16.60;99.90
25410;DHT22;13339;50.840;4.346;2023-04-23T15:04:31;16.60;99.90
25410;DHT22;13339;50.840;4.346;2023-04-23T15:06:57;16.70;99.90
25410;DHT22;13339;50.840;4.346;2023-04-23T15:09:22;16.70;99.90
25410;DHT22;13339;50.840;4.346;2023-04-23T15:11:48;16.50;99.90
25410;DHT22;13339;50.840;4.346;2023-04-23T15:14:17;16.40;99.90
25410;DHT22;13339;50.840;4.346;2023-04-23T15:16:44;16.30;99.90
25410;DHT22;13339;50.840;4.346;2023-04-23T15:19:10;16.50;99.90
25410;DHT22;13339;50.840;4.346;2023-04-23T15:21:36;16.60;99.90
25410;DHT22;13339;50.840;4.346;2023-04-23T15:24:02;16.50;99.90
25410;DHT22;13339;50.840;4.346;2023-04-23T15:26:28;16.40;99.90
25410;DHT22;13339;50.840;4.346;2023-04-23T15:28:57;16.40;99.90
25410;DHT22;13339;50.840;4.346;2023-04-23T15:31:22;16.50;99.90
25410;DHT22;13339;50.840;4.346;2023-04-23T15:33:48;16.70;99.90
25410;DHT22;13339;50.840;4.346;2023-04-23T15:36:14;16.50;99.90
25410;DHT22;13339;50.840;4.346;2023-04-23T15:38:40;16.50;99.90
25410;DHT22;13339;50.840;4.346;2023-04-23T15:41:06;16.60;99.90